Time;durP1;ratioP1;P1;durP2;ratioP2;P2;SDS_P1;SDS_P2;PMS_P1;PMS_P2;Temp;Humidity;BMP_temperature;BMP_pressure;BME280_temperature;BME280_humidity;BME280_pressure;Samples;Min_cycle;Max_cycle;Signal;HPM_P1;HPM_P2
2024/03/09 00:00:40;;;;;;;37.28;19.40;;;7.40;64.90;;;2.28;100.00;94366.28;4980571;28;20094;-48
2024/03/09 00:03:12;;;;;;;33.75;17.42;;;7.40;64.90;;;2.23;100.00;94368.06;4991450;28;20021;-48
2024/03/09 00:05:39;;;;;;;37.00;18.88;;;7.40;65.00;;;2.18;100.00;94354.84;5009259;28;20503;-49
2024/03/09 00:08:09;;;;;;;39.97;19.33;;;7.40;64.90;;;2.17;100.00;94355.91;5012641;28;20396;-48
2024/03/09 00:10:35;;;;;;;36.35;20.15;;;7.30;64.90;;;2.15;100.00;94363.22;5013916;28;20550;-51
2024/03/09 00:13:02;;;;;;;42.45;19.90;;;7.30;64.90;;;2.15;100.00;94384.25;5013199;28;20040;-50
2024/03/09 00:15:28;;;;;;;44.50;20.38;;;7.20;65.00;;;2.11;100.00;94378.69;4992072;28;20059;-51
2024/03/09 00:17:57;;;;;;;44.38;20.30;;;7.20;65.10;;;2.07;100.00;94367.06;5004371;28;20038;-55
2024/03/09 00:20:37;;;;;;;45.50;21.92;;;7.20;65.20;;;2.12;100.00;94368.97;5009675;28;20075;-49
2024/03/09 00:23:08;;;;;;;41.33;20.30;;;7.20;65.30;;;2.14;100.00;94367.69;5005472;28;20033;-49
2024/03/09 00:25:33;;;;;;;39.83;20.42;;;7.20;65.40;;;2.12;100.00;94359.25;5001078;28;20025;-53
2024/03/09 00:28:00;;;;;;;44.35;20.92;;;7.10;65.30;;;2.02;100.00;94357.25;5005498;28;20028;-52
2024/03/09 00:30:29;;;;;;;40.20;20.00;;;7.20;65.50;;;2.05;100.00;94354.16;5010921;28;20045;-48
2024/03/09 00:33:01;;;;;;;38.88;19.85;;;7.20;65.70;;;2.17;100.00;94342.78;5004187;28;20056;-52
2024/03/09 00:35:30;;;;;;;40.42;21.17;;;7.20;66.60;;;2.26;100.00;94343.94;5002618;28;20033;-48
2024/03/09 00:37:58;;;;;;;39.10;20.67;;;7.20;65.90;;;2.27;100.00;94327.13;4998844;28;20027;-50
2024/03/09 00:40:28;;;;;;;37.72;19.48;;;7.20;66.60;;;2.18;100.00;94321.50;5008383;28;20142;-50
2024/03/09 00:42:57;;;;;;;35.13;20.02;;;7.30;65.80;;;2.23;100.00;94329.44;5003007;28;20073;-53
2024/03/09 00:45:25;;;;;;;40.55;19.27;;;7.30;65.80;;;2.27;100.00;94322.66;5004266;28;20082;-48
2024/03/09 00:47:51;;;;;;;43.38;21.92;;;7.30;65.80;;;2.27;100.00;94329.75;5010799;28;20032;-48
2024/03/09 00:50:18;;;;;;;42.95;20.92;;;7.30;65.80;;;2.28;100.00;94337.38;5006951;28;20387;-49
2024/03/09 00:52:48;;;;;;;40.78;20.00;;;7.30;65.80;;;2.32;100.00;94337.72;5002693;28;20048;-52
2024/03/09 00:55:14;;;;;;;36.85;18.70;;;7.30;65.80;;;2.28;100.00;94336.59;5000648;28;20116;-50
2024/03/09 00:57:48;;;;;;;38.53;20.85;;;7.30;65.80;;;2.27;100.00;94335.81;5007119;28;20419;-48
2024/03/09 01:00:18;;;;;;;44.10;21.35;;;7.30;65.80;;;2.26;100.00;94328.97;5000827;28;20031;-52
2024/03/09 01:02:48;;;;;;;40.72;20.83;;;7.30;65.80;;;2.27;100.00;94320.03;5003835;28;20484;-56
2024/03/09 01:05:19;;;;;;;41.40;21.42;;;7.30;65.90;;;2.31;100.00;94317.72;5002032;28;20029;-57
2024/03/09 01:07:46;;;;;;;43.70;20.85;;;7.30;65.80;;;2.29;100.00;94306.66;5006114;28;20072;-49
2024/03/09 01:10:12;;;;;;;42.90;20.42;;;7.30;65.80;;;2.25;100.00;94308.97;4999114;28;20635;-51
2024/03/09 01:12:39;;;;;;;43.03;20.42;;;7.30;65.80;;;2.20;100.00;94301.03;5007002;28;20476;-50
2024/03/09 01:15:09;;;;;;;45.17;21.88;;;7.30;65.70;;;2.16;100.00;94301.75;5005674;28;20517;-50
2024/03/09 01:17:37;;;;;;;42.30;20.38;;;7.20;65.80;;;2.12;100.00;94311.94;5003486;28;20067;-49
2024/03/09 01:20:06;;;;;;;42.97;21.00;;;7.20;65.70;;;2.12;100.00;94313.78;5009124;28;20040;-51
2024/03/09 01:22:33;;;;;;;48.28;22.77;;;7.20;65.80;;;2.11;100.00;94317.47;5005887;28;20025;-47
2024/03/09 01:24:59;;;;;;;46.03;22.75;;;7.20;65.80;;;2.08;100.00;94314.28;5002801;28;20025;-48
2024/03/09 01:27:26;;;;;;;44.45;22.08;;;7.20;65.90;;;2.14;100.00;94322.22;5003456;28;20433;-48
2024/03/09 01:29:54;;;;;;;41.97;20.55;;;7.10;66.00;;;2.12;100.00;94314.56;5001442;28;20225;-52
2024/03/09 01:32:22;;;;;;;43.75;21.23;;;7.20;66.10;;;1.96;100.00;94304.91;5009612;28;20037;-48
2024/03/09 01:34:48;;;;;;;44.78;22.45;;;7.10;66.00;;;2.02;100.00;94296.84;5008163;28;20089;-47
2024/03/09 01:37:19;;;;;;;44.33;23.25;;;7.20;66.40;;;2.16;100.00;94297.28;5011641;28;20037;-48
2024/03/09 01:39:49;;;;;;;44.50;22.05;;;7.10;66.40;;;2.22;100.00;94298.94;5008156;28;20037;-48
2024/03/09 01:42:18;;;;;;;44.45;21.73;;;7.20;66.50;;;2.21;100.00;94291.31;5008168;28;20480;-52
2024/03/09 01:44:51;;;;;;;40.60;20.25;;;7.10;66.40;;;2.15;100.00;94281.78;4986620;28;20535;-48
2024/03/09 01:47:26;;;;;;;42.20;21.83;;;7.10;66.30;;;2.15;100.00;94287.81;5004870;28;20392;-50
2024/03/09 01:49:53;;;;;;;42.10;20.83;;;7.10;66.30;;;2.13;100.00;94283.84;5003298;28;20037;-51
2024/03/09 01:52:25;;;;;;;41.30;20.88;;;7.10;66.10;;;2.06;100.00;94279.56;4991152;28;20033;-52
2024/03/09 01:54:55;;;;;;;51.72;23.92;;;7.10;66.10;;;2.02;100.00;94275.03;5008040;28;20053;-48
2024/03/09 01:57:21;;;;;;;43.10;22.25;;;7.10;66.10;;;1.99;100.00;94260.56;5005995;28;20033;-48
2024/03/09 01:59:54;;;;;;;45.10;22.52;;;7.10;66.30;;;2.08;100.00;94256.47;5004486;28;20029;-49
2024/03/09 02:02:23;;;;;;;45.72;23.02;;;7.10;66.50;;;2.15;100.00;94266.00;5004277;28;20025;-48
2024/03/09 02:04:49;;;;;;;43.00;22.00;;;7.00;66.50;;;2.13;100.00;94265.44;5004415;28;20075;-49
2024/03/09 02:07:16;;;;;;;46.53;21.13;;;7.10;66.40;;;2.11;100.00;94259.66;5006522;28;20056;-54
2024/03/09 02:09:44;;;;;;;49.50;23.52;;;7.10;66.30;;;2.02;100.00;94254.03;5009311;28;20075;-49
2024/03/09 02:12:13;;;;;;;50.17;24.17;;;7.00;66.20;;;1.99;100.00;94244.81;5007754;28;20029;-50
2024/03/09 02:14:39;;;;;;;52.47;24.67;;;7.00;66.30;;;2.10;100.00;94235.22;5006920;28;20036;-51
2024/03/09 02:17:08;;;;;;;51.78;24.73;;;7.00;66.60;;;2.19;100.00;94233.75;5004485;28;20025;-48
2024/03/09 02:19:36;;;;;;;44.97;22.50;;;7.10;66.80;;;2.21;100.00;94226.41;5002587;28;20511;-49
2024/03/09 02:22:06;;;;;;;43.85;22.80;;;7.10;66.90;;;2.25;100.00;94219.63;5001811;28;20029;-51
2024/03/09 02:24:43;;;;;;;44.38;23.80;;;7.10;66.90;;;2.27;100.00;94214.94;4992543;28;20112;-49
2024/03/09 02:27:10;;;;;;;48.83;22.90;;;7.10;66.90;;;2.22;100.00;94206.19;5004007;28;20018;-49
2024/03/09 02:29:36;;;;;;;42.97;21.83;;;7.10;66.60;;;2.18;100.00;94207.72;5001002;28;20026;-48
2024/03/09 02:32:03;;;;;;;45.42;23.73;;;7.10;66.50;;;2.22;100.00;94206.19;5007621;23;20062;-50
2024/03/09 02:34:29;;;;;;;50.35;24.45;;;7.10;66.40;;;2.19;100.00;94201.44;4950827;28;20089;-49
2024/03/09 02:36:55;;;;;;;42.33;22.15;;;7.10;66.40;;;2.04;100.00;94208.09;4952156;28;20023;-53
2024/03/09 02:39:23;;;;;;;44.40;22.65;;;7.10;66.40;;;2.02;100.00;94201.50;4947921;28;20027;-50
2024/03/09 02:41:49;;;;;;;45.97;22.85;;;7.00;66.10;;;1.97;100.00;94198.81;4951761;28;20018;-49
2024/03/09 02:44:14;;;;;;;49.65;23.67;;;7.00;66.20;;;1.98;100.00;94198.56;4950268;28;20034;-56
2024/03/09 02:46:40;;;;;;;45.15;22.75;;;7.00;66.30;;;1.87;100.00;94198.69;4956605;28;20046;-50
2024/03/09 02:49:06;;;;;;;47.90;21.63;;;6.90;66.10;;;1.77;100.00;94194.09;4957862;28;20037;-50
2024/03/09 02:51:32;;;;;;;45.97;22.65;;;6.80;66.00;;;1.72;100.00;94191.41;4955369;28;20034;-52
2024/03/09 02:54:02;;;;;;;45.55;22.38;;;6.80;66.00;;;1.61;100.00;94193.91;4954088;28;20032;-51
2024/03/09 02:56:29;;;;;;;51.13;23.13;;;6.70;65.80;;;1.56;100.00;94196.44;4937421;28;20106;-51
2024/03/09 02:58:55;;;;;;;46.22;22.75;;;6.60;65.70;;;1.51;100.00;94198.22;4949862;28;20466;-51
2024/03/09 03:01:22;;;;;;;47.45;22.30;;;6.50;65.70;;;1.41;100.00;94192.81;4957264;28;20034;-49
2024/03/09 03:03:51;;;;;;;52.83;23.52;;;6.40;66.40;;;1.28;100.00;94193.94;4952755;28;20021;-52
2024/03/09 03:06:20;;;;;;;49.45;24.48;;;6.30;65.60;;;1.11;100.00;94189.50;4960459;28;20030;-50
2024/03/09 03:09:01;;;;;;;61.35;26.08;;;6.30;65.70;;;0.93;100.00;94181.88;4956771;28;20022;-50
2024/03/09 03:11:28;;;;;;;53.60;25.17;;;6.20;65.90;;;0.98;100.00;94189.84;4950783;28;20644;-50
2024/03/09 03:13:54;;;;;;;59.42;24.67;;;6.10;65.90;;;0.93;100.00;94193.16;4956382;28;20026;-50
2024/03/09 03:16:35;;;;;;;56.58;25.38;;;6.00;66.00;;;0.89;100.00;94199.13;4950781;28;20030;-52
2024/03/09 03:19:06;;;;;;;54.78;25.88;;;6.00;66.10;;;0.73;100.00;94187.59;4954981;28;20038;-50
2024/03/09 03:21:34;;;;;;;54.05;24.13;;;5.90;66.10;;;0.67;100.00;94181.47;4939699;28;20023;-52
2024/03/09 03:24:04;;;;;;;59.78;26.13;;;5.80;66.10;;;0.71;100.00;94173.91;4945695;28;20034;-50
2024/03/09 03:26:30;;;;;;;58.25;25.65;;;5.80;66.30;;;0.66;100.00;94184.34;4957511;28;20022;-50
2024/03/09 03:28:56;;;;;;;54.22;24.80;;;5.70;66.40;;;0.55;100.00;94187.81;4958530;28;20030;-51
2024/03/09 03:31:24;;;;;;;60.97;24.95;;;5.70;66.30;;;0.56;100.00;94186.75;4951920;28;20416;-53
2024/03/09 03:33:50;;;;;;;56.55;25.65;;;5.60;66.30;;;0.51;100.00;94182.25;4969423;28;20030;-49
2024/03/09 03:36:20;;;;;;;69.30;28.48;;;5.60;66.40;;;0.51;100.00;94174.38;4977689;28;20500;-49
2024/03/09 03:38:49;;;;;;;64.15;26.73;;;5.50;66.60;;;0.44;100.00;94176.38;4979040;28;20435;-49
2024/03/09 03:41:22;;;;;;;64.35;26.58;;;5.50;66.60;;;0.40;100.00;94188.31;4973734;28;20030;-52
2024/03/09 03:43:47;;;;;;;63.63;25.98;;;5.40;66.60;;;0.34;100.00;94184.03;4976903;28;20022;-52
2024/03/09 03:46:16;;;;;;;60.28;26.20;;;5.40;66.70;;;0.32;100.00;94178.25;4968520;28;20045;-49
2024/03/09 03:48:45;;;;;;;56.63;25.20;;;5.40;66.80;;;0.32;100.00;94173.78;4970107;28;20025;-52
2024/03/09 03:51:14;;;;;;;67.70;26.58;;;5.30;66.80;;;0.28;100.00;94164.78;4976704;28;20018;-51
2024/03/09 03:53:42;;;;;;;63.33;26.30;;;5.30;66.80;;;0.31;100.00;94166.16;4971370;28;20457;-49
2024/03/09 03:56:09;;;;;;;59.45;25.25;;;5.30;66.90;;;0.33;100.00;94167.50;4979276;28;20453;-50
2024/03/09 03:58:37;;;;;;;62.03;25.23;;;5.30;67.00;;;0.33;100.00;94161.47;4973720;28;20094;-51
2024/03/09 04:01:04;;;;;;;58.55;25.42;;;5.30;67.00;;;0.30;100.00;94164.56;4977060;28;20109;-52
2024/03/09 04:03:33;;;;;;;59.30;25.38;;;5.20;67.00;;;0.29;100.00;94171.63;4973901;28;20032;-50
2024/03/09 04:06:01;;;;;;;60.30;25.90;;;5.20;67.00;;;0.27;100.00;94165.84;4974281;28;20417;-52
2024/03/09 04:08:28;;;;;;;65.95;26.30;;;5.20;67.00;;;0.16;100.00;94167.47;4976874;28;20022;-51
2024/03/09 04:10:57;;;;;;;58.58;24.13;;;5.20;67.00;;;0.16;100.00;94171.94;4974177;28;20563;-55
2024/03/09 04:13:24;;;;;;;64.38;26.92;;;5.20;67.20;;;0.33;100.00;94171.97;4976808;28;20032;-54
2024/03/09 04:15:52;;;;;;;66.95;26.52;;;5.20;67.30;;;0.35;100.00;94169.91;4976791;28;20378;-54
2024/03/09 04:18:22;;;;;;;59.05;25.02;;;5.20;67.60;;;0.32;100.00;94171.19;4978601;28;20032;-54
2024/03/09 04:20:49;;;;;;;60.53;25.30;;;5.20;67.60;;;0.27;100.00;94172.91;4977505;28;20025;-49
2024/03/09 04:23:17;;;;;;;56.42;23.48;;;5.20;67.50;;;0.21;100.00;94177.25;4977182;28;20022;-49
2024/03/09 04:25:46;;;;;;;56.45;23.58;;;5.20;67.40;;;0.12;100.00;94168.97;4975948;28;20029;-51
2024/03/09 04:28:20;;;;;;;56.05;24.27;;;5.20;67.30;;;0.02;100.00;94178.47;4977312;28;20473;-51
2024/03/09 04:30:48;;;;;;;60.95;24.45;;;5.10;67.10;;;-0.07;100.00;94180.63;4970930;28;20033;-51
2024/03/09 04:33:15;;;;;;;54.58;23.58;;;5.10;67.10;;;-0.10;100.00;94175.88;4958502;28;20045;-54
2024/03/09 04:35:43;;;;;;;55.13;22.90;;;5.00;67.00;;;-0.08;100.00;94177.22;4966760;28;20025;-54
2024/03/09 04:38:10;;;;;;;60.03;23.98;;;5.00;67.90;;;-0.16;100.00;94177.59;4974676;28;20065;-51
2024/03/09 04:40:37;;;;;;;66.00;24.73;;;4.90;67.00;;;-0.24;100.00;94164.88;4979681;28;20018;-53
2024/03/09 04:43:05;;;;;;;69.40;25.75;;;4.90;67.00;;;-0.28;100.00;94174.22;4973402;28;20125;-54
2024/03/09 04:45:33;;;;;;;65.18;27.70;;;4.80;67.00;;;-0.29;100.00;94172.63;4979993;28;20145;-51
2024/03/09 04:48:00;;;;;;;76.60;26.92;;;4.80;67.20;;;-0.28;100.00;94167.16;4982916;28;20026;-54
2024/03/09 04:50:28;;;;;;;67.15;27.48;;;4.80;67.40;;;-0.30;100.00;94163.19;4976503;28;20034;-50
2024/03/09 04:52:58;;;;;;;78.00;27.00;;;4.70;67.50;;;-0.35;100.00;94170.91;4977634;28;20022;-52
2024/03/09 04:55:27;;;;;;;85.78;29.17;;;4.70;67.50;;;-0.31;100.00;94164.22;4978097;28;20517;-51
2024/03/09 04:57:58;;;;;;;70.40;27.00;;;4.70;67.60;;;-0.32;100.00;94168.63;4960966;28;20448;-49
2024/03/09 05:00:30;;;;;;;81.63;30.17;;;4.70;67.80;;;-0.34;100.00;94160.25;4983468;28;20064;-51
2024/03/09 05:02:57;;;;;;;75.82;28.50;;;4.70;67.80;;;-0.31;100.00;94156.38;4976019;28;20117;-51
2024/03/09 05:05:31;;;;;;;79.97;30.58;;;4.70;67.90;;;-0.23;100.00;94150.75;4982333;28;20523;-50
2024/03/09 05:07:57;;;;;;;93.55;32.05;;;4.70;68.10;;;-0.18;100.00;94143.00;4983915;28;20469;-55
2024/03/09 05:10:23;;;;;;;88.82;32.03;;;4.70;69.00;;;-0.16;100.00;94143.56;4984945;28;20034;-49
2024/03/09 05:12:55;;;;;;;96.80;31.35;;;4.70;68.30;;;-0.14;100.00;94148.56;4979750;28;20025;-49
2024/03/09 05:15:30;;;;;;;90.33;30.07;;;4.80;68.40;;;-0.15;100.00;94147.00;4977079;28;20022;-49
2024/03/09 05:18:00;;;;;;;88.03;30.23;;;4.70;68.40;;;-0.09;100.00;94152.09;4977735;28;20030;-50
2024/03/09 05:20:28;;;;;;;77.85;29.25;;;4.70;68.40;;;-0.06;100.00;94149.00;4983513;28;20056;-51
2024/03/09 05:23:03;;;;;;;80.50;29.08;;;4.80;68.50;;;-0.05;100.00;94147.19;4961342;28;20065;-50
2024/03/09 05:25:30;;;;;;;97.07;33.10;;;4.80;68.60;;;0.05;100.00;94147.38;4965542;28;20116;-53
2024/03/09 05:27:57;;;;;;;82.00;29.40;;;4.90;69.60;;;0.05;100.00;94143.97;4975944;28;20051;-51
2024/03/09 05:30:30;;;;;;;90.93;32.45;;;4.90;68.90;;;0.09;100.00;94138.00;4977060;28;20030;-49
2024/03/09 05:32:57;;;;;;;;;;;4.90;68.90;;;0.12;100.00;94127.06;4958474;28;20101;-51
2024/03/09 05:35:29;;;;;;;76.53;26.88;;;4.90;68.60;;;0.11;100.00;94137.78;4977528;28;19956;-50
2024/03/09 05:38:03;;;;;;;69.28;26.23;;;4.90;68.70;;;0.08;100.00;94133.81;4962452;28;20108;-53
2024/03/09 05:40:30;;;;;;;72.93;26.40;;;5.00;68.70;;;0.12;100.00;94140.16;4981271;28;20018;-49
2024/03/09 05:43:01;;;;;;;77.22;27.35;;;5.00;68.60;;;0.15;100.00;94131.03;4978580;28;20017;-52
2024/03/09 05:45:28;;;;;;;82.50;28.15;;;5.00;68.60;;;0.13;100.00;94130.50;4975462;28;20018;-52
2024/03/09 05:47:58;;;;;;;88.07;29.52;;;5.10;68.70;;;0.13;100.00;94126.06;4976406;28;20192;-51
2024/03/09 05:50:29;;;;;;;88.28;31.13;;;5.10;68.70;;;0.18;100.00;94123.50;4958376;28;20034;-52
2024/03/09 05:53:00;;;;;;;94.18;31.02;;;5.10;68.90;;;0.28;100.00;94130.75;4975324;28;20053;-54
2024/03/09 05:55:27;;;;;;;85.20;29.85;;;5.10;69.10;;;0.35;100.00;94135.84;4981346;28;20026;-52
2024/03/09 05:57:56;;;;;;;83.03;29.73;;;5.20;69.20;;;0.37;100.00;94134.56;4972200;28;20022;-51
2024/03/09 06:00:29;;;;;;;81.82;27.40;;;5.20;69.30;;;0.35;100.00;94135.84;4978079;28;20161;-49
2024/03/09 06:02:57;;;;;;;86.47;28.48;;;5.20;69.20;;;0.35;100.00;94125.38;4982112;28;20041;-51
2024/03/09 06:05:28;;;;;;;81.22;27.98;;;5.30;69.20;;;0.35;100.00;94120.94;4975088;28;20113;-52
2024/03/09 06:07:55;;;;;;;83.93;30.75;;;5.30;69.10;;;0.37;100.00;94124.09;4984373;28;20063;-50
2024/03/09 06:10:21;;;;;;;91.88;30.88;;;5.30;69.00;;;0.38;100.00;94125.69;4973862;28;20038;-52
2024/03/09 06:12:49;;;;;;;89.93;31.02;;;5.30;69.10;;;0.41;100.00;94122.59;4982114;28;20100;-54
2024/03/09 06:15:24;;;;;;;101.20;31.63;;;5.40;69.20;;;0.45;100.00;94121.09;4978731;28;20046;-55
2024/03/09 06:17:55;;;;;;;94.10;31.33;;;5.40;69.20;;;0.49;100.00;94113.56;4978876;28;20105;-54
2024/03/09 06:20:26;;;;;;;88.95;30.00;;;5.50;69.30;;;0.50;100.00;94111.72;4961656;28;20041;-54
2024/03/09 06:22:53;;;;;;;96.22;30.67;;;5.50;69.30;;;0.52;100.00;94117.53;4982214;28;20025;-54
2024/03/09 06:25:25;;;;;;;100.78;32.20;;;5.50;70.10;;;0.55;100.00;94117.06;4960301;28;20030;-57
2024/03/09 06:28:03;;;;;;;92.43;31.85;;;5.60;69.30;;;0.58;100.00;94117.38;4973653;28;20104;-50
2024/03/09 06:30:29;;;;;;;82.72;31.00;;;5.60;69.20;;;0.63;100.00;94116.66;4974824;28;20424;-53
2024/03/09 06:33:00;;;;;;;98.40;31.98;;;5.60;69.10;;;0.65;100.00;94127.69;4977831;28;20113;-48
2024/03/09 06:35:26;;;;;;;92.30;30.77;;;5.70;69.20;;;0.67;100.00;94142.16;4958905;28;20100;-53
2024/03/09 06:38:06;;;;;;;81.10;28.83;;;5.70;69.10;;;0.73;100.00;94135.16;4979058;28;20481;-51
2024/03/09 06:40:39;;;;;;;89.28;30.23;;;5.80;69.20;;;0.73;100.00;94143.03;4971201;28;20472;-54
2024/03/09 06:43:11;;;;;;;92.15;31.63;;;5.80;69.10;;;0.84;100.00;94144.75;4971722;28;20068;-56
2024/03/09 06:45:46;;;;;;;;;;;5.90;69.20;;;0.93;100.00;94142.53;4979201;28;20563;-49
2024/03/09 06:48:14;;;;;;;92.60;31.27;;;6.00;69.10;;;0.95;100.00;94147.56;4974433;28;19928;-52
2024/03/09 06:50:44;;;;;;;87.15;30.58;;;6.00;69.20;;;1.03;100.00;94152.38;4990916;28;20025;-54
2024/03/09 06:53:10;;;;;;;89.07;31.02;;;6.10;69.30;;;1.12;100.00;94167.47;4985882;28;20021;-54
2024/03/09 06:55:37;;;;;;;82.93;30.92;;;6.10;69.30;;;1.18;100.00;94157.06;4990909;28;20028;-54
2024/03/09 06:58:03;;;;;;;90.03;30.33;;;6.20;69.20;;;1.19;100.00;94148.94;4985840;28;20053;-51
2024/03/09 07:00:31;;;;;;;74.55;28.65;;;6.30;69.20;;;1.22;100.00;94148.47;4990947;28;20029;-52
2024/03/09 07:02:58;;;;;;;78.90;30.65;;;6.40;69.10;;;1.31;100.00;94143.63;4987345;28;20436;-50
2024/03/09 07:05:34;;;;;;;84.10;29.50;;;6.50;69.20;;;1.35;100.00;94161.28;4984257;28;20053;-52
2024/03/09 07:08:03;;;;;;;89.07;31.05;;;6.50;69.10;;;1.40;100.00;94157.91;4982972;28;20037;-50
2024/03/09 07:10:30;;;;;;;81.50;29.20;;;6.60;69.00;;;1.51;100.00;94157.03;4976864;28;20436;-51
2024/03/09 07:12:57;;;;;;;77.28;30.13;;;6.70;69.00;;;1.60;100.00;94158.19;4974880;28;20052;-51
2024/03/09 07:15:25;;;;;;;73.45;28.35;;;6.80;68.90;;;1.74;100.00;94152.56;4957466;28;20136;-50
2024/03/09 07:17:56;;;;;;;77.82;31.38;;;7.00;68.80;;;1.80;100.00;94146.34;4978166;28;20024;-53
2024/03/09 07:20:23;;;;;;;85.85;30.30;;;7.20;69.60;;;1.89;100.00;94150.13;4978311;28;20026;-54
2024/03/09 07:22:51;;;;;;;83.90;31.88;;;7.30;68.80;;;2.01;100.00;94150.81;4972337;28;20022;-50
2024/03/09 07:25:24;;;;;;;84.43;33.10;;;7.50;68.90;;;2.18;100.00;94144.69;4973938;28;20026;-51
2024/03/09 07:27:57;;;;;;;78.22;30.27;;;7.60;69.00;;;2.32;100.00;94153.75;4972370;28;20053;-53
2024/03/09 07:30:24;;;;;;;77.55;31.42;;;7.80;69.00;;;2.54;100.00;94154.50;4976594;28;20065;-53
2024/03/09 07:32:50;;;;;;;79.15;31.80;;;8.00;68.90;;;2.78;100.00;94157.59;4970457;28;20045;-56
2024/03/09 07:35:20;;;;;;;69.55;31.58;;;8.40;68.70;;;3.08;100.00;94151.00;4972709;28;20040;-53
2024/03/09 07:37:55;;;;;;;63.38;29.58;;;8.70;68.60;;;3.38;100.00;94150.38;4962002;28;20049;-51
2024/03/09 07:40:24;;;;;;;56.63;26.88;;;9.10;68.40;;;3.62;100.00;94150.00;4971377;28;20026;-51
2024/03/09 07:42:55;;;;;;;49.83;26.08;;;9.50;68.20;;;3.87;100.00;94151.97;4978746;28;20022;-53
2024/03/09 07:45:25;;;;;;;41.97;22.83;;;9.80;67.70;;;3.96;100.00;94147.00;4979091;28;20026;-53
2024/03/09 07:47:51;;;;;;;36.58;21.33;;;10.20;67.20;;;4.26;100.00;94149.75;4959287;28;20025;-51
2024/03/09 07:50:21;;;;;;;34.58;21.05;;;10.50;66.40;;;4.60;100.00;94142.16;4977496;28;20029;-53
2024/03/09 07:52:55;;;;;;;34.95;19.95;;;10.70;65.70;;;4.91;100.00;94150.09;4973443;28;20029;-53
2024/03/09 07:55:28;;;;;;;31.80;19.45;;;11.10;65.20;;;4.94;100.00;94149.56;4979591;28;20057;-52
2024/03/09 07:57:57;;;;;;;28.67;17.75;;;11.40;64.40;;;5.14;100.00;94148.81;4968802;28;20061;-51
2024/03/09 08:00:28;;;;;;;29.60;18.20;;;11.70;63.80;;;5.31;100.00;94148.50;4977398;28;20121;-55
2024/03/09 08:02:55;;;;;;;29.65;18.60;;;11.90;63.30;;;5.42;100.00;94144.00;4975830;28;20055;-53
2024/03/09 08:05:28;;;;;;;31.70;18.85;;;12.20;62.60;;;5.19;100.00;94140.84;4975060;28;20397;-50
2024/03/09 08:07:55;;;;;;;29.88;18.60;;;12.50;61.80;;;5.29;100.00;94134.78;4978022;28;20030;-52
2024/03/09 08:10:26;;;;;;;28.15;18.42;;;12.60;61.00;;;5.71;100.00;94125.72;4949661;28;20038;-51
2024/03/09 08:12:56;;;;;;;26.80;18.27;;;12.80;60.50;;;5.93;99.97;94128.06;4973384;28;20014;-49
2024/03/09 08:15:24;;;;;;;28.75;18.10;;;13.00;60.20;;;6.33;97.80;94131.56;4969583;28;20392;-55
2024/03/09 08:17:51;;;;;;;26.83;18.80;;;13.20;59.90;;;6.76;95.54;94126.53;4970334;28;20117;-52
2024/03/09 08:20:21;;;;;;;26.42;16.52;;;13.50;59.90;;;7.18;92.65;94123.31;4970300;28;20029;-52
2024/03/09 08:22:48;;;;;;;26.05;17.45;;;13.80;59.70;;;7.51;90.11;94118.22;4968864;28;20030;-55
2024/03/09 08:25:17;;;;;;;25.25;17.17;;;14.10;59.40;;;7.68;86.35;94117.78;4970005;28;20501;-53
2024/03/09 08:27:46;;;;;;;26.05;17.45;;;14.30;58.80;;;7.79;86.03;94120.03;4952484;28;20316;-51
2024/03/09 08:30:16;;;;;;;27.52;17.92;;;14.40;58.30;;;7.94;86.09;94110.34;4972699;28;20034;-51
2024/03/09 08:32:50;;;;;;;26.65;18.10;;;14.60;57.80;;;7.82;83.66;94111.53;4986680;23;20051;-54
2024/03/09 08:35:19;;;;;;;28.40;17.70;;;14.70;57.10;;;7.60;83.25;94103.28;5016733;28;20037;-54
2024/03/09 08:37:47;;;;;;;29.67;18.20;;;14.80;56.60;;;7.54;85.04;94105.19;5012385;28;20542;-56
2024/03/09 08:40:19;;;;;;;26.50;17.80;;;14.80;56.20;;;7.46;84.12;94110.31;5011042;28;20029;-55
2024/03/09 08:42:51;;;;;;;27.00;18.50;;;14.80;55.70;;;7.75;84.82;94108.44;5008586;28;20041;-55
2024/03/09 08:45:20;;;;;;;27.52;18.42;;;14.80;55.30;;;7.95;83.29;94107.41;5006968;28;20056;-54
2024/03/09 08:47:51;;;;;;;27.05;18.80;;;14.90;55.30;;;7.79;83.01;94103.34;5004426;28;20036;-56
2024/03/09 08:50:22;;;;;;;25.02;17.48;;;15.00;55.00;;;7.79;83.21;94096.19;5011491;28;20391;-54
2024/03/09 08:52:50;;;;;;;26.92;18.35;;;15.10;54.80;;;7.44;87.07;94073.53;5003379;28;20549;-58
2024/03/09 08:55:17;;;;;;;29.27;17.35;;;15.20;54.30;;;7.22;83.45;94062.63;5008317;28;20099;-52
2024/03/09 08:57:46;;;;;;;26.55;18.15;;;15.30;54.10;;;7.02;87.62;94060.94;4999765;28;20029;-55
2024/03/09 09:00:15;;;;;;;28.15;18.33;;;15.30;53.50;;;7.31;86.47;94068.91;5012597;28;20448;-54
2024/03/09 09:02:41;;;;;;;29.63;18.35;;;15.30;53.30;;;7.15;85.55;94081.50;5010816;28;20468;-56
2024/03/09 09:05:14;;;;;;;25.52;18.10;;;15.30;53.00;;;7.22;87.59;94079.31;5008657;28;20116;-53
2024/03/09 09:07:47;;;;;;;27.45;18.60;;;15.40;52.80;;;7.94;85.57;94074.00;5011175;28;20116;-53
2024/03/09 09:10:20;;;;;;;24.67;17.90;;;15.50;52.90;;;8.21;82.39;94081.38;5004246;28;20048;-55
2024/03/09 09:12:46;;;;;;;27.10;17.85;;;15.70;52.80;;;8.76;80.52;94072.91;5000131;28;20021;-53
2024/03/09 09:15:17;;;;;;;28.05;18.98;;;15.90;52.80;;;8.82;79.10;94074.41;5004013;28;20633;-52
2024/03/09 09:17:43;;;;;;;26.15;17.00;;;16.10;52.40;;;9.05;77.86;94072.69;5005006;28;20034;-55
2024/03/09 09:20:11;;;;;;;26.45;19.13;;;16.30;52.20;;;9.53;76.99;94075.06;5005852;28;20048;-56
2024/03/09 09:22:43;;;;;;;24.08;16.85;;;16.50;52.10;;;9.70;73.78;94069.16;5007454;28;20504;-56
2024/03/09 09:25:12;;;;;;;;;;;16.80;51.70;;;9.78;73.62;94065.84;5008531;28;20035;-55
2024/03/09 09:27:43;;;;;;;25.02;18.10;;;16.90;52.00;;;9.78;72.99;94060.50;5006848;28;19909;-54
2024/03/09 09:30:09;;;;;;;26.15;17.95;;;17.20;51.00;;;10.03;70.28;94063.72;5008976;28;20040;-56
2024/03/09 09:32:35;;;;;;;23.80;17.35;;;17.30;50.60;;;10.26;71.41;94070.72;5002811;28;20116;-55
2024/03/09 09:35:02;;;;;;;24.95;18.67;;;17.50;49.90;;;10.20;70.51;94066.56;4913202;28;22624;-51
2024/03/09 09:37:29;;;;;;;23.77;17.75;;;17.70;49.70;;;10.04;71.54;94060.78;5003707;28;20025;-52
2024/03/09 09:39:55;;;;;;;24.40;17.63;;;17.90;49.20;;;10.16;70.55;94047.75;5006516;28;20503;-54
2024/03/09 09:42:32;;;;;;;23.17;17.20;;;18.00;48.60;;;10.20;69.53;94046.06;5008138;28;20483;-53
2024/03/09 09:44:58;;;;;;;25.75;18.67;;;18.10;48.20;;;10.70;69.50;94034.63;5003609;28;20029;-55
2024/03/09 09:47:29;;;;;;;20.15;15.85;;;18.40;48.30;;;10.67;68.40;94026.44;5008480;28;20057;-55
2024/03/09 09:49:57;;;;;;;22.38;17.15;;;18.50;48.00;;;10.83;67.85;94020.44;5005932;28;20029;-54
2024/03/09 09:52:24;;;;;;;24.90;17.17;;;18.80;47.50;;;11.31;66.50;94014.47;5005832;28;20522;-55
2024/03/09 09:54:58;;;;;;;23.27;17.05;;;18.90;47.30;;;11.39;67.05;94007.56;5007514;28;20033;-52
2024/03/09 09:57:24;;;;;;;22.90;17.23;;;19.10;46.90;;;11.42;64.87;94006.97;5008167;28;20025;-53
2024/03/09 09:59:50;;;;;;;22.20;17.13;;;19.20;46.50;;;11.76;63.93;94016.97;5005094;28;20028;-56
2024/03/09 10:02:18;;;;;;;23.38;15.57;;;19.40;46.20;;;11.86;63.34;94010.59;5003918;28;20025;-56
2024/03/09 10:04:44;;;;;;;21.27;16.77;;;19.60;45.90;;;11.97;63.14;94009.22;4990494;28;20439;-53
2024/03/09 10:07:10;;;;;;;21.10;16.50;;;19.80;45.50;;;12.36;62.13;94006.75;5006405;28;20104;-57
2024/03/09 10:09:36;;;;;;;18.80;15.30;;;20.00;45.10;;;12.46;61.04;93998.41;5007011;28;20404;-55
2024/03/09 10:12:04;;;;;;;22.88;16.67;;;20.20;44.50;;;12.83;60.30;94001.53;5005454;28;20033;-52
2024/03/09 10:14:31;;;;;;;22.60;16.70;;;20.50;44.10;;;12.67;59.81;93993.22;5002940;28;20029;-53
2024/03/09 10:17:11;;;;;;;20.95;16.17;;;20.70;43.80;;;12.54;59.58;94002.97;5002783;28;20025;-54
2024/03/09 10:19:38;;;;;;;18.92;15.43;;;20.90;43.20;;;12.65;59.91;93995.44;5003348;28;20113;-55